createdAt,value
2023-07-05T00:01:50.443Z,3.00
2023-07-05T00:04:52.889Z,3.37
2023-07-05T00:07:55.341Z,3.00
2023-07-05T00:11:08.885Z,3.17
2023-07-05T00:14:11.353Z,3.10
2023-07-05T00:17:13.786Z,3.17
2023-07-05T00:20:17.069Z,3.10
2023-07-05T00:23:19.444Z,2.90
2023-07-05T00:26:21.873Z,2.80
2023-07-05T00:29:24.246Z,3.00
2023-07-05T00:32:26.789Z,2.90
2023-07-05T00:35:29.178Z,3.07
2023-07-05T00:38:31.885Z,2.83
2023-07-05T00:41:34.310Z,3.00
2023-07-05T00:44:36.772Z,3.30
2023-07-05T00:47:41.448Z,3.05
2023-07-05T00:50:47.438Z,3.10
2023-07-05T00:53:50.220Z,3.07
2023-07-05T00:57:01.850Z,3.05
2023-07-05T01:00:09.076Z,3.10
2023-07-05T01:03:13.996Z,2.83
2023-07-05T01:06:16.396Z,3.10
2023-07-05T01:09:21.083Z,2.93
2023-07-05T01:12:36.901Z,3.13
2023-07-05T01:15:49.831Z,2.88
2023-07-05T01:19:04.704Z,2.80
2023-07-05T01:22:10.281Z,2.90
2023-07-05T01:25:36.578Z,3.10
2023-07-05T01:29:16.810Z,2.83
2023-07-05T01:32:30.475Z,2.80
2023-07-05T01:35:37.401Z,2.80
2023-07-05T01:38:39.770Z,3.00
2023-07-05T01:41:43.061Z,2.83
2023-07-05T01:44:46.014Z,2.75
2023-07-05T01:48:05.834Z,2.83
2023-07-05T01:51:10.291Z,2.83
2023-07-05T01:54:40.741Z,2.97
2023-07-05T01:57:52.986Z,2.90
2023-07-05T02:00:57.146Z,2.67
2023-07-05T02:03:59.896Z,2.80
2023-07-05T02:07:05.308Z,2.83
2023-07-05T02:10:08.041Z,2.90
2023-07-05T02:13:12.453Z,2.80
2023-07-05T02:16:14.976Z,2.65
2023-07-05T02:19:18.354Z,3.15
2023-07-05T02:22:20.799Z,2.72
2023-07-05T02:25:23.492Z,2.83
2023-07-05T02:28:25.926Z,2.90
2023-07-05T02:31:29.730Z,2.90
2023-07-05T02:34:32.233Z,2.90
2023-07-05T02:37:36.294Z,2.92
2023-07-05T02:40:38.696Z,2.80
2023-07-05T02:43:41.074Z,2.77
2023-07-05T02:46:43.530Z,2.40
2023-07-05T02:49:46.029Z,3.05
2023-07-05T02:52:48.731Z,2.88
2023-07-05T02:55:52.408Z,2.70
2023-07-05T02:58:54.956Z,2.67
2023-07-05T03:01:57.453Z,2.80
2023-07-05T03:05:07.510Z,2.80
2023-07-05T03:08:10.358Z,2.70
2023-07-05T03:11:12.749Z,2.90
2023-07-05T03:14:15.193Z,3.00
2023-07-05T03:17:17.654Z,2.63
2023-07-05T03:20:20.982Z,2.60
2023-07-05T03:23:23.549Z,2.70
2023-07-05T03:26:27.203Z,2.50
2023-07-05T03:29:30.959Z,2.50
2023-07-05T03:32:35.094Z,2.63
2023-07-05T03:35:37.485Z,2.63
2023-07-05T03:38:40.369Z,2.78
2023-07-05T03:41:42.740Z,2.43
2023-07-05T03:44:45.291Z,2.80
2023-07-05T03:47:47.714Z,2.70
2023-07-05T03:50:50.278Z,2.45
2023-07-05T03:53:57.848Z,2.38
2023-07-05T03:57:00.201Z,3.10
2023-07-05T04:00:02.642Z,2.73
2023-07-05T04:03:14.869Z,2.47
2023-07-05T04:06:18.246Z,2.67
2023-07-05T04:09:20.611Z,2.42
2023-07-05T04:12:23.002Z,2.53
2023-07-05T04:15:25.458Z,2.70
2023-07-05T04:18:28.972Z,2.00
2023-07-05T04:21:31.401Z,2.83
2023-07-05T04:24:33.839Z,2.90
2023-07-05T04:27:36.726Z,2.50
2023-07-05T04:30:39.072Z,2.70
2023-07-05T04:33:41.465Z,2.50
2023-07-05T04:36:43.809Z,2.50
2023-07-05T04:39:46.362Z,2.30
2023-07-05T04:42:49.158Z,2.20
2023-07-05T04:45:52.624Z,2.60
2023-07-05T04:48:55.011Z,2.22
2023-07-05T04:51:57.382Z,2.50
2023-07-05T04:54:59.819Z,2.60
2023-07-05T04:58:04.918Z,2.50
2023-07-05T05:01:09.197Z,2.47
2023-07-05T05:04:11.916Z,2.60
2023-07-05T05:07:14.542Z,2.30
2023-07-05T05:10:17.008Z,2.25
2023-07-05T05:13:19.715Z,2.33
2023-07-05T05:16:22.147Z,2.40
2023-07-05T05:19:24.576Z,2.25
2023-07-05T05:22:26.995Z,2.30
2023-07-05T05:25:29.399Z,2.40
2023-07-05T05:28:31.946Z,2.60
2023-07-05T05:31:34.369Z,2.33
2023-07-05T05:34:36.957Z,2.33
2023-07-05T05:37:40.282Z,2.17
2023-07-05T05:40:42.670Z,2.17
2023-07-05T05:43:46.296Z,2.30
2023-07-05T05:46:48.749Z,2.20
2023-07-05T05:49:51.193Z,2.20
2023-07-05T05:52:53.577Z,2.42
2023-07-05T05:55:57.600Z,2.13
2023-07-05T05:58:59.986Z,2.10
2023-07-05T06:02:02.387Z,2.13
2023-07-05T06:05:05.108Z,3.00
2023-07-05T06:08:07.500Z,4.47
2023-07-05T06:11:09.916Z,5.20
2023-07-05T06:14:12.296Z,5.97
2023-07-05T06:17:14.641Z,6.60
2023-07-05T06:20:17.567Z,6.30
2023-07-05T06:23:20.518Z,6.50
2023-07-05T06:26:24.321Z,6.18
2023-07-05T06:29:26.837Z,6.63
2023-07-05T06:32:29.512Z,6.47
2023-07-05T06:35:32.479Z,6.63
2023-07-05T06:38:35.075Z,6.70
2023-07-05T06:41:37.484Z,6.28
2023-07-05T06:44:39.938Z,7.17
2023-07-05T06:47:42.779Z,6.77
2023-07-05T06:50:45.238Z,8.32
2023-07-05T06:53:49.780Z,6.80
2023-07-05T06:56:52.536Z,6.05
2023-07-05T06:59:54.937Z,6.50
2023-07-05T07:02:58.024Z,6.67
2023-07-05T07:06:00.697Z,6.72
2023-07-05T07:09:05.034Z,6.97
2023-07-05T07:12:08.819Z,6.85
2023-07-05T07:15:11.233Z,6.50
2023-07-05T07:18:13.633Z,6.53
2023-07-05T07:21:18.091Z,6.90
2023-07-05T07:24:20.710Z,6.65
2023-07-05T07:27:23.157Z,6.38
2023-07-05T07:30:26.858Z,6.93
2023-07-05T07:33:29.296Z,6.60
2023-07-05T07:36:33.108Z,7.13
2023-07-05T07:39:35.506Z,6.57
2023-07-05T07:42:37.940Z,6.45
2023-07-05T07:45:40.451Z,7.00
2023-07-05T07:48:44.173Z,6.43
2023-07-05T07:51:46.697Z,6.32
2023-07-05T07:54:49.233Z,6.18
2023-07-05T07:57:51.683Z,6.80
2023-07-05T08:00:54.537Z,6.83
2023-07-05T08:03:58.564Z,7.23
2023-07-05T08:07:02.460Z,7.13
2023-07-05T08:10:05.382Z,6.30
2023-07-05T08:13:07.754Z,6.10
2023-07-05T08:16:10.196Z,6.23
2023-07-05T08:19:12.745Z,6.20
2023-07-05T08:22:16.619Z,5.65
2023-07-05T08:25:20.105Z,6.10
2023-07-05T08:28:23.541Z,6.50
2023-07-05T08:31:26.194Z,6.00
2023-07-05T08:34:28.841Z,6.10
2023-07-05T08:37:31.520Z,5.95
2023-07-05T08:40:39.423Z,5.90
2023-07-05T08:43:45.794Z,5.80
2023-07-05T08:46:52.188Z,5.60
2023-07-05T08:50:17.823Z,5.40
2023-07-05T08:53:25.021Z,5.88
2023-07-05T08:56:37.707Z,5.75
2023-07-05T08:59:48.932Z,6.38
2023-07-05T09:02:51.748Z,6.20
2023-07-05T09:06:00.556Z,5.90
2023-07-05T09:09:27.294Z,6.20
2023-07-05T09:12:38.626Z,6.05
2023-07-05T09:16:07.388Z,6.03
2023-07-05T09:19:42.105Z,5.90
2023-07-05T09:22:45.275Z,5.93
2023-07-05T09:25:55.755Z,6.28
2023-07-05T09:29:31.765Z,5.90
2023-07-05T09:32:37.422Z,5.90
2023-07-05T09:35:44.583Z,5.63
2023-07-05T09:38:47.758Z,8.20
2023-07-05T09:41:51.639Z,7.28
2023-07-05T09:44:54.070Z,6.75
2023-07-05T09:48:00.606Z,6.85
2023-07-05T09:51:05.258Z,6.77
2023-07-05T09:54:12.054Z,6.73
2023-07-05T09:57:24.118Z,5.88
2023-07-05T10:00:35.609Z,5.88
2023-07-05T10:03:45.875Z,6.25
2023-07-05T10:06:49.201Z,6.10
2023-07-05T10:10:17.828Z,5.97
2023-07-05T10:13:23.522Z,6.20
2023-07-05T10:16:25.996Z,6.05
2023-07-05T10:19:39.745Z,5.95
2023-07-05T10:22:42.126Z,6.00
2023-07-05T10:25:45.710Z,6.13
2023-07-05T10:28:48.145Z,6.38
2023-07-05T10:31:59.347Z,5.57
2023-07-05T10:35:02.961Z,6.07
2023-07-05T10:38:20.089Z,5.90
2023-07-05T10:41:33.099Z,6.50
2023-07-05T10:44:36.439Z,5.95
2023-07-05T10:47:39.846Z,5.72
2023-07-05T10:50:42.741Z,5.80
2023-07-05T10:53:49.618Z,5.97
2023-07-05T10:56:52.277Z,6.13
2023-07-05T11:00:29.645Z,6.05
2023-07-05T11:03:57.164Z,5.78
2023-07-05T11:07:07.636Z,5.93
2023-07-05T11:10:29.731Z,5.95
2023-07-05T11:13:32.263Z,5.70
2023-07-05T11:16:35.202Z,6.05
2023-07-05T11:19:37.653Z,5.90
2023-07-05T11:22:45.809Z,5.90
2023-07-05T11:26:00.144Z,5.78
2023-07-05T11:29:31.654Z,5.40
2023-07-05T11:33:13.624Z,5.90
2023-07-05T11:36:29.984Z,5.50
2023-07-05T11:39:39.126Z,5.60
2023-07-05T11:42:41.600Z,5.40
2023-07-05T11:45:47.709Z,5.80
2023-07-05T11:48:50.775Z,6.10
2023-07-05T11:51:59.107Z,5.70
2023-07-05T11:55:15.029Z,5.57
2023-07-05T11:58:18.772Z,6.20
2023-07-05T12:01:28.475Z,5.57
2023-07-05T12:04:33.749Z,5.60
2023-07-05T12:07:36.998Z,5.53
2023-07-05T12:10:42.778Z,5.75
2023-07-05T12:13:45.199Z,5.87
2023-07-05T12:16:48.052Z,5.40
2023-07-05T12:19:51.277Z,5.57
2023-07-05T12:22:53.665Z,5.90
2023-07-05T12:25:58.537Z,5.70
2023-07-05T12:29:04.498Z,5.73
2023-07-05T12:32:09.208Z,5.63
2023-07-05T12:35:22.133Z,5.80
2023-07-05T12:38:24.536Z,5.78
2023-07-05T12:41:28.312Z,5.68
2023-07-05T12:44:32.177Z,5.67
2023-07-05T12:47:34.710Z,5.80
2023-07-05T12:50:37.106Z,6.10
2023-07-05T12:53:39.616Z,5.47
2023-07-05T12:56:45.891Z,6.50
2023-07-05T13:00:00.306Z,6.00
2023-07-05T13:03:15.804Z,6.00
2023-07-05T13:06:19.578Z,5.57
2023-07-05T13:09:30.150Z,6.00
2023-07-05T13:12:46.957Z,6.20
2023-07-05T13:15:49.455Z,5.63
2023-07-05T13:18:57.866Z,6.03
2023-07-05T13:22:17.123Z,6.03
2023-07-05T13:25:31.103Z,5.97
2023-07-05T13:28:33.649Z,5.70
2023-07-05T13:31:36.176Z,5.60
2023-07-05T13:34:38.868Z,5.80
2023-07-05T13:37:41.279Z,5.90
2023-07-05T13:40:59.395Z,5.85
2023-07-05T13:44:01.828Z,5.20
2023-07-05T13:47:06.041Z,5.68
2023-07-05T13:50:09.104Z,5.30
2023-07-05T13:53:20.013Z,5.43
2023-07-05T13:56:22.771Z,5.30
2023-07-05T13:59:25.266Z,5.47
2023-07-05T14:02:33.095Z,4.87
2023-07-05T14:05:35.732Z,5.13
2023-07-05T14:08:38.185Z,5.60
2023-07-05T14:11:42.663Z,5.30
2023-07-05T14:14:45.121Z,5.20
2023-07-05T14:17:47.641Z,5.40
2023-07-05T14:20:50.266Z,5.77
2023-07-05T14:23:52.856Z,4.95
2023-07-05T14:26:55.280Z,5.10
2023-07-05T14:29:58.534Z,5.05
2023-07-05T14:33:01.115Z,5.28
2023-07-05T14:36:03.888Z,5.70
2023-07-05T14:39:06.294Z,5.00
2023-07-05T14:42:10.758Z,5.00
2023-07-05T14:45:20.742Z,5.22
2023-07-05T14:48:23.120Z,5.07
2023-07-05T14:51:26.272Z,5.37
2023-07-05T14:54:29.596Z,5.30
2023-07-05T14:57:31.955Z,4.72
2023-07-05T15:00:34.778Z,4.95
2023-07-05T15:03:41.053Z,5.03
2023-07-05T15:06:43.474Z,4.93
2023-07-05T15:09:46.750Z,4.90
2023-07-05T15:12:49.138Z,5.30
2023-07-05T15:15:51.629Z,5.10
2023-07-05T15:18:54.286Z,5.23
2023-07-05T15:21:56.674Z,5.17
2023-07-05T15:25:00.444Z,4.97
2023-07-05T15:28:06.400Z,4.93
2023-07-05T15:31:10.700Z,4.90
2023-07-05T15:34:13.158Z,4.87
2023-07-05T15:37:15.531Z,4.87
2023-07-05T15:40:21.270Z,5.28
2023-07-05T15:43:24.596Z,4.93
2023-07-05T15:46:27.754Z,5.10
2023-07-05T15:49:30.147Z,5.03
2023-07-05T15:52:33.907Z,5.60
2023-07-05T15:55:36.303Z,5.32
2023-07-05T15:58:44.465Z,4.70
2023-07-05T16:01:53.146Z,4.78
2023-07-05T16:04:55.976Z,5.00
2023-07-05T16:07:58.595Z,4.70
2023-07-05T16:11:01.187Z,4.88
2023-07-05T16:14:03.837Z,4.57
2023-07-05T16:17:06.449Z,4.68
2023-07-05T16:20:09.328Z,4.43
2023-07-05T16:23:11.694Z,4.57
2023-07-05T16:26:14.140Z,4.90
2023-07-05T16:29:18.618Z,4.65
2023-07-05T16:32:21.116Z,5.05
2023-07-05T16:35:23.597Z,4.80
2023-07-05T16:38:26.368Z,4.77
2023-07-05T16:41:28.911Z,4.97
2023-07-05T16:44:31.313Z,4.40
2023-07-05T16:47:33.735Z,4.70
2023-07-05T16:50:36.274Z,5.07
2023-07-05T16:53:40.456Z,4.83
2023-07-05T16:56:42.956Z,4.93
2023-07-05T16:59:45.448Z,4.60
2023-07-05T17:02:47.956Z,4.70
2023-07-05T17:05:54.440Z,4.50
2023-07-05T17:08:56.841Z,4.70
2023-07-05T17:11:59.537Z,4.50
2023-07-05T17:15:01.947Z,4.45
2023-07-05T17:18:04.943Z,4.47
2023-07-05T17:21:09.953Z,4.60
2023-07-05T17:24:12.351Z,4.60
2023-07-05T17:27:14.792Z,4.90
2023-07-05T17:30:17.509Z,4.32
2023-07-05T17:33:19.891Z,4.53
2023-07-05T17:36:23.781Z,4.57
2023-07-05T17:39:26.285Z,4.90
2023-07-05T17:42:28.752Z,4.70
2023-07-05T17:45:31.159Z,5.13
2023-07-05T17:48:33.635Z,4.70
2023-07-05T17:51:36.122Z,4.47
2023-07-05T17:54:38.771Z,4.57
2023-07-05T17:57:41.138Z,4.47
2023-07-05T18:00:47.079Z,4.70
2023-07-05T18:03:49.499Z,4.72
2023-07-05T18:06:52.449Z,4.23
2023-07-05T18:09:54.905Z,4.70
2023-07-05T18:12:57.319Z,4.55
2023-07-05T18:16:05.021Z,4.38
2023-07-05T18:19:08.617Z,4.22
2023-07-05T18:22:11.070Z,4.40
2023-07-05T18:25:14.500Z,4.50
2023-07-05T18:28:17.182Z,4.80
2023-07-05T18:31:21.498Z,4.55
2023-07-05T18:34:24.230Z,4.53
2023-07-05T18:37:26.689Z,4.60
2023-07-05T18:40:29.228Z,4.40
2023-07-05T18:43:31.703Z,4.95
2023-07-05T18:46:34.094Z,4.45
2023-07-05T18:49:36.519Z,4.30
2023-07-05T18:52:39.610Z,4.68
2023-07-05T18:55:42.600Z,4.20
2023-07-05T18:58:45.187Z,4.50
2023-07-05T19:01:47.738Z,4.50
2023-07-05T19:04:50.227Z,4.45
2023-07-05T19:07:52.631Z,4.30
2023-07-05T19:10:59.095Z,4.57
2023-07-05T19:14:01.950Z,4.68
2023-07-05T19:17:05.811Z,4.90
2023-07-05T19:20:10.019Z,4.30
2023-07-05T19:23:12.426Z,4.53
2023-07-05T19:26:17.681Z,5.07
2023-07-05T19:29:22.127Z,5.13
2023-07-05T19:32:24.900Z,4.70
2023-07-05T19:35:27.734Z,4.60
2023-07-05T19:38:30.196Z,4.60
2023-07-05T19:41:33.096Z,4.40
2023-07-05T19:44:35.604Z,4.50
2023-07-05T19:47:38.075Z,4.57
2023-07-05T19:50:40.544Z,4.10
2023-07-05T19:53:42.996Z,4.20
2023-07-05T19:56:45.908Z,4.20
2023-07-05T19:59:48.281Z,4.50
2023-07-05T20:02:50.820Z,4.15
2023-07-05T20:05:53.369Z,4.07
2023-07-05T20:08:56.355Z,3.83
2023-07-05T20:11:58.991Z,4.13
2023-07-05T20:15:01.413Z,4.00
2023-07-05T20:18:05.001Z,3.83
2023-07-05T20:21:10.265Z,4.10
2023-07-05T20:24:15.256Z,3.93
2023-07-05T20:27:17.689Z,4.00
2023-07-05T20:30:21.438Z,4.25
2023-07-05T20:33:32.464Z,4.00
2023-07-05T20:36:36.874Z,4.18
2023-07-05T20:39:39.314Z,4.07
2023-07-05T20:42:43.258Z,4.07
2023-07-05T20:45:45.670Z,4.28
2023-07-05T20:48:48.083Z,4.10
2023-07-05T20:51:53.202Z,3.92
2023-07-05T20:54:55.618Z,4.03
2023-07-05T20:57:59.188Z,4.10
2023-07-05T21:01:01.756Z,3.95
2023-07-05T21:04:04.934Z,4.07
2023-07-05T21:07:07.393Z,4.10
2023-07-05T21:10:10.636Z,4.03
2023-07-05T21:13:21.107Z,4.50
2023-07-05T21:16:23.799Z,3.70
2023-07-05T21:19:26.190Z,3.80
2023-07-05T21:22:28.607Z,4.00
2023-07-05T21:25:32.769Z,4.00
2023-07-05T21:28:35.313Z,4.10
2023-07-05T21:31:37.800Z,4.13
2023-07-05T21:34:40.428Z,4.00
2023-07-05T21:37:43.113Z,4.30
2023-07-05T21:40:46.115Z,4.20
2023-07-05T21:43:48.631Z,3.80
2023-07-05T21:46:52.908Z,4.50
2023-07-05T21:49:55.711Z,4.38
2023-07-05T21:52:58.124Z,3.78
2023-07-05T21:56:02.245Z,3.93
2023-07-05T21:59:05.110Z,3.90
2023-07-05T22:02:07.668Z,4.15
2023-07-05T22:05:10.243Z,4.10
2023-07-05T22:08:12.651Z,4.30
2023-07-05T22:11:15.664Z,4.20
2023-07-05T22:14:18.076Z,4.07
2023-07-05T22:17:22.505Z,4.07
2023-07-05T22:20:26.291Z,4.13
2023-07-05T22:23:28.682Z,4.22
2023-07-05T22:26:31.085Z,3.97
2023-07-05T22:29:33.856Z,4.10
2023-07-05T22:32:36.453Z,4.13
2023-07-05T22:35:38.833Z,4.07
2023-07-05T22:38:41.557Z,4.03
2023-07-05T22:41:44.009Z,3.87
2023-07-05T22:44:46.539Z,4.07
2023-07-05T22:47:49.052Z,3.97
2023-07-05T22:50:51.441Z,3.92
2023-07-05T22:53:53.892Z,3.80
2023-07-05T22:56:58.066Z,3.67
2023-07-05T23:00:00.553Z,3.97
2023-07-05T23:03:03.113Z,3.78
2023-07-05T23:06:10.797Z,3.90
2023-07-05T23:09:13.188Z,4.10
2023-07-05T23:12:18.193Z,3.97
2023-07-05T23:15:23.975Z,4.00
2023-07-05T23:18:27.148Z,3.85
2023-07-05T23:21:29.627Z,3.70
2023-07-05T23:24:32.003Z,3.78
2023-07-05T23:27:34.788Z,4.00
2023-07-05T23:30:37.190Z,3.60
2023-07-05T23:33:40.380Z,3.60
2023-07-05T23:36:43.527Z,3.95
2023-07-05T23:39:46.363Z,3.55
2023-07-05T23:42:48.755Z,3.90
2023-07-05T23:45:51.103Z,3.97
2023-07-05T23:48:54.499Z,3.60
2023-07-05T23:51:57.797Z,3.90
2023-07-05T23:55:00.177Z,3.80
2023-07-05T23:58:05.864Z,3.80
